Time,TemperatureF,DewpointF,PressureIn,WindDirection,WindDirectionDegrees,WindSpeedMPH,WindSpeedGustMPH,Humidity,HourlyPrecipIn,Conditions,Clouds,dailyrainin,SoftwareType,DateUTC
2013-07-19 00:01:00,59.7,54.9,30.13,NNE,18,0.0,7.0,84,0.00,,,0.00,Wunderground v.1.15,2013-07-19 07:01:00,
2013-07-19 00:06:00,59.6,54.8,30.13,NW,310,0.0,7.0,84,0.00,,,0.00,Wunderground v.1.15,2013-07-19 07:06:00,
2013-07-19 00:12:00,59.4,54.6,30.13,WNW,285,0.0,7.0,84,0.00,,,0.00,Wunderground v.1.15,2013-07-19 07:12:00,
2013-07-19 00:17:00,59.2,54.7,30.13,WNW,285,0.0,7.0,85,0.00,,,0.00,Wunderground v.1.15,2013-07-19 07:17:00,
2013-07-19 00:22:00,59.0,54.5,30.13,NE,49,0.0,7.0,85,0.00,,,0.00,Wunderground v.1.15,2013-07-19 07:22:00,
2013-07-19 00:27:00,58.8,54.3,30.13,NNE,30,0.0,7.0,85,0.00,,,0.00,Wunderground v.1.15,2013-07-19 07:27:00,
2013-07-19 00:32:00,58.6,54.4,30.13,NE,43,0.0,7.0,86,0.00,,,0.00,Wunderground v.1.15,2013-07-19 07:32:00,
2013-07-19 00:37:00,58.4,54.2,30.13,NNE,18,0.0,7.0,86,0.00,,,0.00,Wunderground v.1.15,2013-07-19 07:37:00,
2013-07-19 00:43:00,58.3,54.1,30.13,North,4,0.0,7.0,86,0.00,,,0.00,Wunderground v.1.15,2013-07-19 07:43:00,
2013-07-19 00:48:00,58.2,54.3,30.13,WNW,288,0.0,7.0,87,0.00,,,0.00,Wunderground v.1.15,2013-07-19 07:48:00,
2013-07-19 00:53:00,58.1,54.2,30.13,WNW,288,0.0,7.0,87,0.00,,,0.00,Wunderground v.1.15,2013-07-19 07:53:00,
2013-07-19 00:58:00,58.1,54.2,30.13,WNW,288,0.0,7.0,87,0.00,,,0.00,Wunderground v.1.15,2013-07-19 07:58:00,
2013-07-19 01:03:00,58.0,54.2,30.13,WNW,288,0.0,7.0,87,0.00,,,0.00,Wunderground v.1.15,2013-07-19 08:03:00,
2013-07-19 01:09:00,57.9,54.1,30.13,West,276,0.0,7.0,87,0.00,,,0.00,Wunderground v.1.15,2013-07-19 08:09:00,
2013-07-19 01:14:00,57.8,54.3,30.13,West,281,0.0,7.0,88,0.00,,,0.00,Wunderground v.1.15,2013-07-19 08:14:00,
2013-07-19 01:19:00,57.7,54.2,30.13,West,281,0.0,7.0,88,0.00,,,0.00,Wunderground v.1.15,2013-07-19 08:19:00,
2013-07-19 01:24:00,57.6,54.1,30.13,West,281,0.0,7.0,88,0.00,,,0.00,Wunderground v.1.15,2013-07-19 08:24:00,
2013-07-19 01:29:00,57.4,54.2,30.13,West,281,0.0,7.0,89,0.00,,,0.00,Wunderground v.1.15,2013-07-19 08:29:00,
2013-07-19 01:35:00,57.3,54.1,30.12,West,281,0.0,7.0,89,0.00,,,0.00,Wunderground v.1.15,2013-07-19 08:35:00,
2013-07-19 01:40:00,57.1,53.9,30.13,WNW,283,0.0,7.0,89,0.00,,,0.00,Wunderground v.1.15,2013-07-19 08:40:00,
2013-07-19 01:45:00,57.0,53.8,30.13,WNW,283,0.0,7.0,89,0.00,,,0.00,Wunderground v.1.15,2013-07-19 08:45:00,
2013-07-19 01:50:00,56.9,53.7,30.13,WNW,283,0.0,7.0,89,0.00,,,0.00,Wunderground v.1.15,2013-07-19 08:50:00,
2013-07-19 01:55:00,56.7,53.8,30.13,WNW,288,0.0,7.0,90,0.00,,,0.00,Wunderground v.1.15,2013-07-19 08:55:00,
2013-07-19 02:01:00,56.6,53.7,30.13,WNW,288,0.0,7.0,90,0.00,,,0.00,Wunderground v.1.15,2013-07-19 09:01:00,
2013-07-19 02:06:00,56.5,53.6,30.13,WNW,288,0.0,7.0,90,0.00,,,0.00,Wunderground v.1.15,2013-07-19 09:06:00,
2013-07-19 02:11:00,56.4,53.5,30.13,WNW,291,0.0,7.0,90,0.00,,,0.00,Wunderground v.1.15,2013-07-19 09:11:00,
2013-07-19 02:16:00,56.3,53.7,30.13,WNW,291,0.0,7.0,91,0.00,,,0.00,Wunderground v.1.15,2013-07-19 09:16:00,
2013-07-19 02:21:00,56.2,53.6,30.13,WNW,291,1.0,7.0,91,0.00,,,0.00,Wunderground v.1.15,2013-07-19 09:21:00,
2013-07-19 02:27:00,56.1,53.5,30.13,WNW,290,1.0,7.0,91,0.00,,,0.00,Wunderground v.1.15,2013-07-19 09:27:00,
2013-07-19 02:32:00,56.0,53.4,30.13,WNW,286,1.0,7.0,91,0.00,,,0.00,Wunderground v.1.15,2013-07-19 09:32:00,
2013-07-19 02:37:00,55.9,53.3,30.13,WNW,291,1.0,7.0,91,0.00,,,0.00,Wunderground v.1.15,2013-07-19 09:37:00,
2013-07-19 02:42:00,55.8,53.2,30.13,WNW,289,1.0,7.0,91,0.00,,,0.00,Wunderground v.1.15,2013-07-19 09:42:00,
2013-07-19 02:47:00,55.7,53.1,30.13,WNW,288,1.0,7.0,91,0.00,,,0.00,Wunderground v.1.15,2013-07-19 09:47:00,
2013-07-19 02:53:00,55.7,53.1,30.13,WNW,293,1.0,7.0,91,0.00,,,0.00,Wunderground v.1.15,2013-07-19 09:53:00,
2013-07-19 02:58:00,55.7,53.4,30.13,WNW,289,1.0,7.0,92,0.00,,,0.00,Wunderground v.1.15,2013-07-19 09:58:00,
2013-07-19 03:03:00,55.7,53.4,30.13,WNW,289,2.0,7.0,92,0.00,,,0.00,Wunderground v.1.15,2013-07-19 10:03:00,
2013-07-19 03:08:00,55.5,53.2,30.13,WNW,288,1.0,7.0,92,0.00,,,0.00,Wunderground v.1.15,2013-07-19 10:08:00,
2013-07-19 03:13:00,55.5,53.2,30.13,WNW,288,0.0,7.0,92,0.00,,,0.00,Wunderground v.1.15,2013-07-19 10:13:00,
2013-07-19 03:19:00,55.4,53.1,30.13,WNW,289,1.0,7.0,92,0.00,,,0.00,Wunderground v.1.15,2013-07-19 10:19:00,
2013-07-19 03:24:00,55.4,53.1,30.13,WNW,291,2.0,7.0,92,0.00,,,0.00,Wunderground v.1.15,2013-07-19 10:24:00,
2013-07-19 03:29:00,55.3,53.0,30.13,WNW,289,1.0,7.0,92,0.00,,,0.00,Wunderground v.1.15,2013-07-19 10:29:00,
2013-07-19 03:34:00,55.2,52.9,30.13,WNW,287,1.0,7.0,92,0.00,,,0.00,Wunderground v.1.15,2013-07-19 10:34:00,
2013-07-19 03:39:00,55.2,53.2,30.13,WNW,289,1.0,7.0,93,0.00,,,0.00,Wunderground v.1.15,2013-07-19 10:39:00,
2013-07-19 03:44:00,55.1,53.1,30.13,WNW,291,1.0,7.0,93,0.00,,,0.00,Wunderground v.1.15,2013-07-19 10:44:00,
2013-07-19 03:49:00,55.1,53.1,30.13,WNW,290,1.0,7.0,93,0.00,,,0.00,Wunderground v.1.15,2013-07-19 10:49:00,
2013-07-19 03:54:00,55.1,53.1,30.13,WNW,285,1.0,7.0,93,0.00,,,0.00,Wunderground v.1.15,2013-07-19 10:54:00,
2013-07-19 03:59:00,55.0,53.0,30.13,WNW,286,1.0,7.0,93,0.00,,,0.00,Wunderground v.1.15,2013-07-19 10:59:00,
2013-07-19 04:02:00,54.9,52.9,30.13,WNW,290,1.0,7.0,93,0.00,,,0.00,Wunderground v.1.15,2013-07-19 11:02:00,
2013-07-19 04:07:00,54.9,52.9,30.13,WNW,291,1.0,7.0,93,0.00,,,0.00,Wunderground v.1.15,2013-07-19 11:07:00,
2013-07-19 04:12:00,54.9,52.9,30.13,WNW,290,0.0,7.0,93,0.00,,,0.00,Wunderground v.1.15,2013-07-19 11:12:00,
2013-07-19 04:17:00,54.8,52.8,30.13,WNW,290,0.0,7.0,93,0.00,,,0.00,Wunderground v.1.15,2013-07-19 11:17:00,
2013-07-19 04:22:00,54.7,52.7,30.13,WNW,290,0.0,7.0,93,0.00,,,0.00,Wunderground v.1.15,2013-07-19 11:22:00,
2013-07-19 04:28:00,54.7,53.0,30.13,WNW,289,0.0,7.0,94,0.00,,,0.00,Wunderground v.1.15,2013-07-19 11:28:00,
2013-07-19 04:33:00,54.7,53.0,30.13,WNW,289,1.0,7.0,94,0.00,,,0.00,Wunderground v.1.15,2013-07-19 11:33:00,
2013-07-19 04:38:00,54.8,52.8,30.14,WNW,289,1.0,7.0,93,0.00,,,0.00,Wunderground v.1.15,2013-07-19 11:38:00,
2013-07-19 04:43:00,54.6,52.6,30.14,WNW,289,0.0,7.0,93,0.00,,,0.00,Wunderground v.1.15,2013-07-19 11:43:00,
2013-07-19 04:48:00,54.6,52.9,30.14,WNW,289,0.0,7.0,94,0.00,,,0.00,Wunderground v.1.15,2013-07-19 11:48:00,
2013-07-19 04:54:00,54.5,52.8,30.14,WNW,289,1.0,7.0,94,0.00,,,0.00,Wunderground v.1.15,2013-07-19 11:54:00,
2013-07-19 04:59:00,54.5,52.8,30.14,WNW,290,1.0,7.0,94,0.00,,,0.00,Wunderground v.1.15,2013-07-19 11:59:00,
2013-07-19 05:04:00,54.3,52.3,30.14,WNW,295,1.0,7.0,93,0.00,,,0.00,Wunderground v.1.15,2013-07-19 12:04:00,
2013-07-19 05:09:00,54.3,52.6,30.14,WNW,283,1.0,7.0,94,0.00,,,0.00,Wunderground v.1.15,2013-07-19 12:09:00,
2013-07-19 05:14:00,54.2,52.5,30.14,WNW,282,1.0,7.0,94,0.00,,,0.00,Wunderground v.1.15,2013-07-19 12:14:00,
2013-07-19 05:20:00,54.2,52.5,30.15,WNW,291,1.0,7.0,94,0.00,,,0.00,Wunderground v.1.15,2013-07-19 12:20:00,
2013-07-19 05:25:00,54.2,52.5,30.14,WNW,290,1.0,7.0,94,0.00,,,0.00,Wunderground v.1.15,2013-07-19 12:25:00,
2013-07-19 05:30:00,54.3,52.6,30.15,WNW,293,1.0,7.0,94,0.00,,,0.00,Wunderground v.1.15,2013-07-19 12:30:00,
2013-07-19 05:35:00,54.5,53.1,30.15,West,265,1.0,7.0,95,0.00,,,0.00,Wunderground v.1.15,2013-07-19 12:35:00,
2013-07-19 05:40:00,54.7,53.0,30.15,West,277,1.0,1.0,94,0.00,,,0.00,Wunderground v.1.15,2013-07-19 12:40:00,
2013-07-19 05:46:00,55.1,53.7,30.15,WNW,285,0.0,7.0,95,0.00,,,0.00,Wunderground v.1.15,2013-07-19 12:46:00,
2013-07-19 05:51:00,55.4,54.0,30.15,NNW,348,0.0,7.0,95,0.00,,,0.00,Wunderground v.1.15,2013-07-19 12:51:00,
2013-07-19 05:56:00,55.6,54.2,30.15,West,281,0.0,7.0,95,0.00,,,0.00,Wunderground v.1.15,2013-07-19 12:56:00,
2013-07-19 06:01:00,55.8,54.1,30.15,WNW,283,0.0,7.0,94,0.00,,,0.00,Wunderground v.1.15,2013-07-19 13:01:00,
2013-07-19 06:06:00,55.9,54.2,30.15,WNW,283,0.0,7.0,94,0.00,,,0.00,Wunderground v.1.15,2013-07-19 13:06:00,
2013-07-19 06:12:00,56.0,54.3,30.15,NW,320,1.0,7.0,94,0.00,,,0.00,Wunderground v.1.15,2013-07-19 13:12:00,
2013-07-19 06:17:00,56.1,54.4,30.15,North,5,1.0,7.0,94,0.00,,,0.00,Wunderground v.1.15,2013-07-19 13:17:00,
2013-07-19 06:22:00,56.1,54.4,30.15,NNW,330,1.0,7.0,94,0.00,,,0.00,Wunderground v.1.15,2013-07-19 13:22:00,
2013-07-19 06:27:00,56.1,54.4,30.15,NNW,345,1.0,7.0,94,0.00,,,0.00,Wunderground v.1.15,2013-07-19 13:27:00,
2013-07-19 06:28:00,56.2,54.5,30.15,NNW,348,1.0,7.0,94,0.00,,,0.00,Wunderground v.1.15,2013-07-19 13:28:00,
2013-07-19 06:33:00,56.2,54.5,30.15,NNE,27,1.0,7.0,94,0.00,,,0.00,Wunderground v.1.15,2013-07-19 13:33:00,
2013-07-19 06:38:00,56.2,54.5,30.15,NNE,20,2.0,7.0,94,0.00,,,0.00,Wunderground v.1.15,2013-07-19 13:38:00,
2013-07-19 06:43:00,56.2,54.5,30.15,NNW,348,1.0,7.0,94,0.00,,,0.00,Wunderground v.1.15,2013-07-19 13:43:00,
2013-07-19 06:48:00,56.3,54.6,30.15,North,354,1.0,7.0,94,0.00,,,0.00,Wunderground v.1.15,2013-07-19 13:48:00,
2013-07-19 06:53:00,56.3,54.6,30.15,NNE,21,2.0,7.0,94,0.00,,,0.00,Wunderground v.1.15,2013-07-19 13:53:00,
2013-07-19 06:59:00,56.4,54.7,30.15,NE,46,1.0,7.0,94,0.00,,,0.00,Wunderground v.1.15,2013-07-19 13:59:00,
2013-07-19 07:04:00,56.4,54.7,30.15,ENE,68,2.0,7.0,94,0.00,,,0.00,Wunderground v.1.15,2013-07-19 14:04:00,
2013-07-19 07:09:00,56.5,54.8,30.15,NE,52,1.0,7.0,94,0.00,,,0.00,Wunderground v.1.15,2013-07-19 14:09:00,
2013-07-19 07:14:00,56.6,54.9,30.15,ENE,71,1.0,7.0,94,0.00,,,0.00,Wunderground v.1.15,2013-07-19 14:14:00,
2013-07-19 07:19:00,56.6,54.9,30.16,ENE,72,3.0,7.0,94,0.00,,,0.00,Wunderground v.1.15,2013-07-19 14:19:00,
2013-07-19 07:24:00,56.8,55.1,30.16,ENE,77,3.0,7.0,94,0.00,,,0.00,Wunderground v.1.15,2013-07-19 14:24:00,
2013-07-19 07:29:00,57.0,55.0,30.16,ENE,75,2.0,7.0,93,0.00,,,0.00,Wunderground v.1.15,2013-07-19 14:29:00,
2013-07-19 07:34:00,57.1,55.1,30.16,ENE,77,2.0,7.0,93,0.00,,,0.00,Wunderground v.1.15,2013-07-19 14:34:00,
2013-07-19 07:39:00,57.4,55.1,30.16,East,81,2.0,7.0,92,0.00,,,0.00,Wunderground v.1.15,2013-07-19 14:39:00,
2013-07-19 07:44:00,57.4,55.1,30.16,ENE,71,2.0,7.0,92,0.00,,,0.00,Wunderground v.1.15,2013-07-19 14:44:00,
2013-07-19 07:50:00,57.9,55.3,30.16,ENE,77,3.0,3.0,91,0.00,,,0.00,Wunderground v.1.15,2013-07-19 14:50:00,
2013-07-19 07:55:00,58.2,55.6,30.16,ENE,57,2.0,7.0,91,0.00,,,0.00,Wunderground v.1.15,2013-07-19 14:55:00,
2013-07-19 08:00:00,58.2,55.3,30.16,ENE,70,2.0,7.0,90,0.00,,,0.00,Wunderground v.1.15,2013-07-19 15:00:00,
2013-07-19 08:05:00,58.2,55.6,30.16,North,11,2.0,7.0,91,0.00,,,0.00,Wunderground v.1.15,2013-07-19 15:05:00,
2013-07-19 08:10:00,58.2,55.3,30.16,NE,39,1.0,1.0,90,0.00,,,0.00,Wunderground v.1.15,2013-07-19 15:10:00,
2013-07-19 08:15:00,58.4,55.5,30.16,ENE,58,1.0,7.0,90,0.00,,,0.00,Wunderground v.1.15,2013-07-19 15:15:00,
2013-07-19 08:20:00,58.6,56.0,30.16,NE,53,1.0,7.0,91,0.00,,,0.00,Wunderground v.1.15,2013-07-19 15:20:00,
2013-07-19 08:26:00,59.4,56.2,30.16,NE,53,1.0,7.0,89,0.00,,,0.00,Wunderground v.1.15,2013-07-19 15:26:00,
2013-07-19 08:31:00,59.7,56.1,30.16,NE,50,1.0,7.0,88,0.00,,,0.00,Wunderground v.1.15,2013-07-19 15:31:00,
2013-07-19 08:36:00,59.5,56.3,30.16,East,92,1.0,7.0,89,0.00,,,0.00,Wunderground v.1.15,2013-07-19 15:36:00,
2013-07-19 08:41:00,59.4,55.8,30.16,ENE,76,1.0,7.0,88,0.00,,,0.00,Wunderground v.1.15,2013-07-19 15:41:00,
2013-07-19 08:46:00,59.1,55.9,30.16,ENE,69,2.0,7.0,89,0.00,,,0.00,Wunderground v.1.15,2013-07-19 15:46:00,
2013-07-19 08:52:00,59.2,56.0,30.16,NE,51,1.0,7.0,89,0.00,,,0.00,Wunderground v.1.15,2013-07-19 15:52:00,
2013-07-19 08:57:00,59.3,56.1,30.16,NE,46,1.0,7.0,89,0.00,,,0.00,Wunderground v.1.15,2013-07-19 15:57:00,
2013-07-19 09:02:00,59.3,56.1,30.16,East,83,1.0,7.0,89,0.00,,,0.00,Wunderground v.1.15,2013-07-19 16:02:00,
2013-07-19 09:07:00,59.3,55.7,30.16,ENE,71,1.0,7.0,88,0.00,,,0.00,Wunderground v.1.15,2013-07-19 16:07:00,
2013-07-19 09:12:00,59.4,56.2,30.16,NE,43,2.0,7.0,89,0.00,,,0.00,Wunderground v.1.15,2013-07-19 16:12:00,
2013-07-19 09:18:00,59.3,55.7,30.16,ENE,72,3.0,7.0,88,0.00,,,0.00,Wunderground v.1.15,2013-07-19 16:18:00,
2013-07-19 09:23:00,59.2,55.6,30.16,NNE,18,2.0,7.0,88,0.00,,,0.00,Wunderground v.1.15,2013-07-19 16:23:00,
2013-07-19 09:29:00,59.6,55.7,30.16,NE,52,1.0,7.0,87,0.00,,,0.00,Wunderground v.1.15,2013-07-19 16:29:00,
2013-07-19 09:35:00,59.9,56.3,30.16,East,86,1.0,7.0,88,0.00,,,0.00,Wunderground v.1.15,2013-07-19 16:35:00,
2013-07-19 09:40:00,59.8,55.9,30.16,ENE,61,1.0,7.0,87,0.00,,,0.00,Wunderground v.1.15,2013-07-19 16:40:00,
2013-07-19 09:45:00,60.1,56.2,30.16,ESE,105,1.0,7.0,87,0.00,,,0.00,Wunderground v.1.15,2013-07-19 16:45:00,
2013-07-19 09:50:00,60.4,56.2,30.16,SE,128,1.0,1.0,86,0.00,,,0.00,Wunderground v.1.15,2013-07-19 16:50:00,
2013-07-19 09:55:00,60.8,56.6,30.16,SE,129,1.0,7.0,86,0.00,,,0.00,Wunderground v.1.15,2013-07-19 16:55:00,
2013-07-19 10:01:00,61.2,56.7,30.16,SSE,167,1.0,7.0,85,0.00,,,0.00,Wunderground v.1.15,2013-07-19 17:01:00,
2013-07-19 10:06:00,61.5,56.6,30.15,East,94,1.0,7.0,84,0.00,,,0.00,Wunderground v.1.15,2013-07-19 17:06:00,
2013-07-19 10:11:00,61.7,56.8,30.15,ESE,113,1.0,7.0,84,0.00,,,0.00,Wunderground v.1.15,2013-07-19 17:11:00,
2013-07-19 10:16:00,62.0,56.8,30.15,SE,128,1.0,7.0,83,0.00,,,0.00,Wunderground v.1.15,2013-07-19 17:16:00,
2013-07-19 10:21:00,62.1,57.2,30.15,East,86,1.0,7.0,84,0.00,,,0.00,Wunderground v.1.15,2013-07-19 17:21:00,
2013-07-19 10:27:00,62.3,57.1,30.15,East,91,2.0,7.0,83,0.00,,,0.00,Wunderground v.1.15,2013-07-19 17:27:00,
2013-07-19 10:32:00,62.1,57.5,30.15,ENE,66,3.0,7.0,85,0.00,,,0.00,Wunderground v.1.15,2013-07-19 17:32:00,
2013-07-19 10:37:00,62.4,57.2,30.15,ENE,70,3.0,7.0,83,0.00,,,0.00,Wunderground v.1.15,2013-07-19 17:37:00,
2013-07-19 10:42:00,62.1,57.2,30.15,ENE,75,3.0,7.0,84,0.00,,,0.00,Wunderground v.1.15,2013-07-19 17:42:00,
2013-07-19 10:47:00,62.3,57.4,30.15,ENE,75,3.0,7.0,84,0.00,,,0.00,Wunderground v.1.15,2013-07-19 17:47:00,
2013-07-19 10:53:00,62.6,57.7,30.15,ENE,63,3.0,7.0,84,0.00,,,0.00,Wunderground v.1.15,2013-07-19 17:53:00,
2013-07-19 10:59:00,62.6,57.7,30.15,ENE,71,3.0,7.0,84,0.00,,,0.00,Wunderground v.1.15,2013-07-19 17:59:00,
2013-07-19 11:04:00,62.2,57.3,30.15,ENE,74,4.0,7.0,84,0.00,,,0.00,Wunderground v.1.15,2013-07-19 18:04:00,
2013-07-19 11:09:00,62.2,57.3,30.15,ENE,76,4.0,7.0,84,0.00,,,0.00,Wunderground v.1.15,2013-07-19 18:09:00,
2013-07-19 11:15:00,62.6,57.4,30.15,East,80,3.0,7.0,83,0.00,,,0.00,Wunderground v.1.15,2013-07-19 18:15:00,
2013-07-19 11:20:00,62.9,57.3,30.15,East,87,2.0,7.0,82,0.00,,,0.00,Wunderground v.1.15,2013-07-19 18:20:00,
2013-07-19 11:25:00,63.5,57.6,30.15,ESE,108,2.0,7.0,81,0.00,,,0.00,Wunderground v.1.15,2013-07-19 18:25:00,
2013-07-19 11:30:00,63.7,57.8,30.15,South,172,2.0,7.0,81,0.00,,,0.00,Wunderground v.1.15,2013-07-19 18:30:00,
2013-07-19 11:35:00,63.9,58.0,30.14,SSE,150,2.0,7.0,81,0.00,,,0.00,Wunderground v.1.15,2013-07-19 18:35:00,
2013-07-19 11:41:00,64.6,58.3,30.14,SE,134,2.0,7.0,80,0.00,,,0.00,Wunderground v.1.15,2013-07-19 18:41:00,
2013-07-19 11:46:00,64.5,58.2,30.14,SW,224,2.0,7.0,80,0.00,,,0.00,Wunderground v.1.15,2013-07-19 18:46:00,
2013-07-19 11:51:00,64.8,58.8,30.14,SE,126,2.0,7.0,81,0.00,,,0.00,Wunderground v.1.15,2013-07-19 18:51:00,
2013-07-19 11:56:00,65.3,58.3,30.14,SSE,167,3.0,7.0,78,0.00,,,0.00,Wunderground v.1.15,2013-07-19 18:56:00,
2013-07-19 12:01:00,65.4,58.7,30.14,SSE,158,5.0,6.0,79,0.00,,,0.00,Wunderground v.1.15,2013-07-19 19:01:00,
2013-07-19 12:07:00,65.4,58.7,30.14,SSE,153,5.0,7.0,79,0.00,,,0.00,Wunderground v.1.15,2013-07-19 19:07:00,
2013-07-19 12:12:00,65.5,58.8,30.13,SE,144,5.0,7.0,79,0.00,,,0.00,Wunderground v.1.15,2013-07-19 19:12:00,
2013-07-19 12:17:00,65.4,58.4,30.13,SSE,149,4.0,7.0,78,0.00,,,0.00,Wunderground v.1.15,2013-07-19 19:17:00,
2013-07-19 12:22:00,65.5,58.8,30.13,SE,134,4.0,7.0,79,0.00,,,0.00,Wunderground v.1.15,2013-07-19 19:22:00,
2013-07-19 12:27:00,66.0,59.3,30.13,SSE,148,4.0,7.0,79,0.00,,,0.00,Wunderground v.1.15,2013-07-19 19:27:00,
2013-07-19 12:32:00,66.4,59.0,30.13,SSE,156,3.0,7.0,77,0.00,,,0.00,Wunderground v.1.15,2013-07-19 19:32:00,
2013-07-19 12:37:00,66.9,58.7,30.12,SE,142,3.0,7.0,75,0.00,,,0.00,Wunderground v.1.15,2013-07-19 19:37:00,
2013-07-19 12:42:00,67.1,59.3,30.12,SE,138,3.0,7.0,76,0.00,,,0.00,Wunderground v.1.15,2013-07-19 19:42:00,
2013-07-19 12:47:00,67.5,59.3,30.12,SE,127,3.0,7.0,75,0.00,,,0.00,Wunderground v.1.15,2013-07-19 19:47:00,
2013-07-19 12:52:00,67.8,59.2,30.12,ESE,116,3.0,7.0,74,0.00,,,0.00,Wunderground v.1.15,2013-07-19 19:52:00,
2013-07-19 12:57:00,67.9,59.3,30.12,SSE,151,4.0,7.0,74,0.00,,,0.00,Wunderground v.1.15,2013-07-19 19:57:00,
2013-07-19 13:02:00,68.1,59.1,30.11,SSE,147,5.0,7.0,73,0.00,,,0.00,Wunderground v.1.15,2013-07-19 20:02:00,
2013-07-19 13:07:00,68.0,59.0,30.11,SE,146,4.0,7.0,73,0.00,,,0.00,Wunderground v.1.15,2013-07-19 20:07:00,
2013-07-19 13:13:00,68.1,59.5,30.11,SSE,153,4.0,7.0,74,0.00,,,0.00,Wunderground v.1.15,2013-07-19 20:13:00,
2013-07-19 13:18:00,68.4,59.8,30.11,SSE,152,4.0,7.0,74,0.00,,,0.00,Wunderground v.1.15,2013-07-19 20:18:00,
2013-07-19 13:23:00,68.5,59.5,30.11,SSE,159,4.0,7.0,73,0.00,,,0.00,Wunderground v.1.15,2013-07-19 20:23:00,
2013-07-19 13:28:00,69.0,60.0,30.10,SSE,150,4.0,7.0,73,0.00,,,0.00,Wunderground v.1.15,2013-07-19 20:28:00,
2013-07-19 13:34:00,69.1,60.1,30.10,SE,146,4.0,7.0,73,0.00,,,0.00,Wunderground v.1.15,2013-07-19 20:34:00,
2013-07-19 13:40:00,69.3,59.9,30.10,SSE,160,4.0,7.0,72,0.00,,,0.00,Wunderground v.1.15,2013-07-19 20:40:00,
2013-07-19 13:45:00,69.4,60.4,30.10,SE,142,4.0,7.0,73,0.00,,,0.00,Wunderground v.1.15,2013-07-19 20:45:00,
2013-07-19 13:50:00,69.7,59.9,30.10,SSE,155,4.0,4.0,71,0.00,,,0.00,Wunderground v.1.15,2013-07-19 20:50:00,
2013-07-19 13:55:00,69.8,60.0,30.10,SSE,147,3.0,7.0,71,0.00,,,0.00,Wunderground v.1.15,2013-07-19 20:55:00,
2013-07-19 14:01:00,69.8,59.6,30.09,SSE,158,3.0,7.0,70,0.00,,,0.00,Wunderground v.1.15,2013-07-19 21:01:00,
2013-07-19 14:06:00,69.9,59.7,30.09,SSE,164,3.0,7.0,70,0.00,,,0.00,Wunderground v.1.15,2013-07-19 21:06:00,
2013-07-19 14:11:00,70.4,61.3,30.09,SSE,149,3.0,7.0,73,0.00,,,0.00,Wunderground v.1.15,2013-07-19 21:11:00,
2013-07-19 14:17:00,71.7,61.4,30.09,SE,143,2.0,7.0,70,0.00,,,0.00,Wunderground v.1.15,2013-07-19 21:17:00,
2013-07-19 14:23:00,71.2,60.1,30.09,SSE,155,3.0,7.0,68,0.00,,,0.00,Wunderground v.1.15,2013-07-19 21:23:00,
2013-07-19 14:28:00,71.1,60.4,30.08,SE,142,3.0,7.0,69,0.00,,,0.00,Wunderground v.1.15,2013-07-19 21:28:00,
2013-07-19 14:33:00,71.3,60.2,30.08,SSE,155,3.0,7.0,68,0.00,,,0.00,Wunderground v.1.15,2013-07-19 21:33:00,
2013-07-19 14:38:00,71.7,60.2,30.08,SSE,167,3.0,7.0,67,0.00,,,0.00,Wunderground v.1.15,2013-07-19 21:38:00,
2013-07-19 14:43:00,71.8,60.7,30.08,SSE,156,3.0,7.0,68,0.00,,,0.00,Wunderground v.1.15,2013-07-19 21:43:00,
2013-07-19 14:49:00,71.8,60.7,30.08,SSE,162,3.0,7.0,68,0.00,,,0.00,Wunderground v.1.15,2013-07-19 21:49:00,
2013-07-19 14:54:00,72.2,59.8,30.08,SSE,160,3.0,7.0,65,0.00,,,0.00,Wunderground v.1.15,2013-07-19 21:54:00,
2013-07-19 14:59:00,72.7,60.7,30.08,SSE,167,3.0,7.0,66,0.00,,,0.00,Wunderground v.1.15,2013-07-19 21:59:00,
2013-07-19 15:04:00,72.9,60.4,30.07,SSE,163,3.0,7.0,65,0.00,,,0.00,Wunderground v.1.15,2013-07-19 22:04:00,
2013-07-19 15:09:00,73.3,59.9,30.07,SSE,158,2.0,7.0,63,0.00,,,0.00,Wunderground v.1.15,2013-07-19 22:09:00,
2013-07-19 15:15:00,73.9,61.4,30.07,SSE,153,2.0,7.0,65,0.00,,,0.00,Wunderground v.1.15,2013-07-19 22:15:00,
2013-07-19 15:20:00,73.4,60.5,30.07,SSE,154,3.0,7.0,64,0.00,,,0.00,Wunderground v.1.15,2013-07-19 22:20:00,
2013-07-19 15:25:00,73.6,60.2,30.07,SSE,154,3.0,7.0,63,0.00,,,0.00,Wunderground v.1.15,2013-07-19 22:25:00,
2013-07-19 15:30:00,74.0,61.0,30.07,SSE,149,3.0,7.0,64,0.00,,,0.00,Wunderground v.1.15,2013-07-19 22:30:00,
2013-07-19 15:35:00,73.8,61.3,30.07,SSE,157,4.0,7.0,65,0.00,,,0.00,Wunderground v.1.15,2013-07-19 22:35:00,
2013-07-19 15:41:00,73.7,61.2,30.06,SSE,159,4.0,7.0,65,0.00,,,0.00,Wunderground v.1.15,2013-07-19 22:41:00,
2013-07-19 15:46:00,73.7,60.8,30.06,SSE,157,4.0,7.0,64,0.00,,,0.00,Wunderground v.1.15,2013-07-19 22:46:00,
2013-07-19 15:51:00,74.0,61.5,30.06,SSE,152,3.0,7.0,65,0.00,,,0.00,Wunderground v.1.15,2013-07-19 22:51:00,
2013-07-19 15:56:00,74.0,61.9,30.06,SSE,149,3.0,7.0,66,0.00,,,0.00,Wunderground v.1.15,2013-07-19 22:56:00,
2013-07-19 16:01:00,74.0,61.5,30.06,SSE,153,3.0,7.0,65,0.00,,,0.00,Wunderground v.1.15,2013-07-19 23:01:00,
2013-07-19 16:07:00,73.9,60.5,30.06,SSE,164,3.0,7.0,63,0.00,,,0.00,Wunderground v.1.15,2013-07-19 23:07:00,
2013-07-19 16:12:00,74.0,60.6,30.06,SSE,148,3.0,7.0,63,0.00,,,0.00,Wunderground v.1.15,2013-07-19 23:12:00,
2013-07-19 16:17:00,74.2,60.8,30.06,SE,131,3.0,7.0,63,0.00,,,0.00,Wunderground v.1.15,2013-07-19 23:17:00,
2013-07-19 16:22:00,74.3,60.4,30.06,SSE,154,3.0,7.0,62,0.00,,,0.00,Wunderground v.1.15,2013-07-19 23:22:00,
2013-07-19 16:27:00,74.7,60.8,30.06,South,171,3.0,7.0,62,0.00,,,0.00,Wunderground v.1.15,2013-07-19 23:27:00,
2013-07-19 16:33:00,75.0,61.1,30.05,SSE,158,2.0,7.0,62,0.00,,,0.00,Wunderground v.1.15,2013-07-19 23:33:00,
2013-07-19 16:38:00,75.2,60.8,30.05,SSE,165,2.0,7.0,61,0.00,,,0.00,Wunderground v.1.15,2013-07-19 23:38:00,
2013-07-19 16:43:00,75.7,60.8,30.05,SSE,161,2.0,7.0,60,0.00,,,0.00,Wunderground v.1.15,2013-07-19 23:43:00,
2013-07-19 16:48:00,75.5,60.6,30.05,SSE,168,2.0,7.0,60,0.00,,,0.00,Wunderground v.1.15,2013-07-19 23:48:00,
2013-07-19 16:53:00,75.9,60.5,30.05,SE,146,1.0,7.0,59,0.00,,,0.00,Wunderground v.1.15,2013-07-19 23:53:00,
2013-07-19 16:58:00,76.0,61.1,30.05,ESE,110,1.0,7.0,60,0.00,,,0.00,Wunderground v.1.15,2013-07-19 23:58:00,
2013-07-19 17:03:00,76.2,60.8,30.04,SE,129,1.0,7.0,59,0.00,,,0.00,Wunderground v.1.15,2013-07-20 00:03:00,
2013-07-19 17:08:00,76.2,61.3,30.04,SE,135,1.0,7.0,60,0.00,,,0.00,Wunderground v.1.15,2013-07-20 00:08:00,
2013-07-19 17:13:00,76.1,61.7,30.04,ESE,109,1.0,7.0,61,0.00,,,0.00,Wunderground v.1.15,2013-07-20 00:13:00,
2013-07-19 17:18:00,75.8,61.4,30.04,ESE,119,1.0,7.0,61,0.00,,,0.00,Wunderground v.1.15,2013-07-20 00:18:00,
2013-07-19 17:23:00,75.7,60.8,30.04,East,89,1.0,7.0,60,0.00,,,0.00,Wunderground v.1.15,2013-07-20 00:23:00,
2013-07-19 17:29:00,75.3,60.9,30.04,East,89,1.0,7.0,61,0.00,,,0.00,Wunderground v.1.15,2013-07-20 00:29:00,
2013-07-19 17:34:00,75.2,60.4,30.04,East,89,1.0,7.0,60,0.00,,,0.00,Wunderground v.1.15,2013-07-20 00:34:00,
2013-07-19 17:39:00,75.5,60.6,30.03,East,80,0.0,7.0,60,0.00,,,0.00,Wunderground v.1.15,2013-07-20 00:39:00,
2013-07-19 17:44:00,75.4,60.5,30.03,East,80,0.0,7.0,60,0.00,,,0.00,Wunderground v.1.15,2013-07-20 00:44:00,
2013-07-19 17:49:00,75.3,60.5,30.03,East,80,0.0,7.0,60,0.00,,,0.00,Wunderground v.1.15,2013-07-20 00:49:00,
2013-07-19 17:55:00,75.4,61.0,30.03,East,81,0.0,7.0,61,0.00,,,0.00,Wunderground v.1.15,2013-07-20 00:55:00,
2013-07-19 18:00:00,75.2,60.8,30.03,East,83,1.0,7.0,61,0.00,,,0.00,Wunderground v.1.15,2013-07-20 01:00:00,
2013-07-19 18:05:00,75.3,60.9,30.03,NE,54,1.0,7.0,61,0.00,,,0.00,Wunderground v.1.15,2013-07-20 01:05:00,
2013-07-19 18:10:00,75.2,61.3,30.03,ENE,58,1.0,7.0,62,0.00,,,0.00,Wunderground v.1.15,2013-07-20 01:10:00,
2013-07-19 18:15:00,75.0,60.6,30.03,East,94,2.0,7.0,61,0.00,,,0.00,Wunderground v.1.15,2013-07-20 01:15:00,
2013-07-19 18:21:00,75.0,60.6,30.03,NE,51,2.0,7.0,61,0.00,,,0.00,Wunderground v.1.15,2013-07-20 01:21:00,
2013-07-19 18:26:00,75.0,60.6,30.02,NE,50,1.0,7.0,61,0.00,,,0.00,Wunderground v.1.15,2013-07-20 01:26:00,
2013-07-19 18:31:00,74.9,61.5,30.02,ESE,117,1.0,7.0,63,0.00,,,0.00,Wunderground v.1.15,2013-07-20 01:31:00,
2013-07-19 18:36:00,74.8,60.9,30.03,SE,129,1.0,7.0,62,0.00,,,0.00,Wunderground v.1.15,2013-07-20 01:36:00,
2013-07-19 18:41:00,74.6,61.6,30.03,ESE,112,1.0,7.0,64,0.00,,,0.00,Wunderground v.1.15,2013-07-20 01:41:00,
2013-07-19 18:47:00,74.5,61.1,30.02,ESE,118,1.0,7.0,63,0.00,,,0.00,Wunderground v.1.15,2013-07-20 01:47:00,
2013-07-19 18:52:00,74.6,61.2,30.02,SE,129,1.0,7.0,63,0.00,,,0.00,Wunderground v.1.15,2013-07-20 01:52:00,
2013-07-19 18:57:00,74.5,61.5,30.02,East,96,1.0,7.0,64,0.00,,,0.00,Wunderground v.1.15,2013-07-20 01:57:00,
2013-07-19 19:02:00,74.1,62.0,30.02,ENE,78,1.0,7.0,66,0.00,,,0.00,Wunderground v.1.15,2013-07-20 02:02:00,
2013-07-19 19:07:00,74.4,61.9,30.02,East,82,1.0,7.0,65,0.00,,,0.00,Wunderground v.1.15,2013-07-20 02:07:00,
2013-07-19 19:13:00,74.6,61.2,30.03,East,79,0.0,7.0,63,0.00,,,0.00,Wunderground v.1.15,2013-07-20 02:13:00,
2013-07-19 19:18:00,74.2,60.8,30.02,ENE,66,1.0,7.0,63,0.00,,,0.00,Wunderground v.1.15,2013-07-20 02:18:00,
2013-07-19 19:23:00,73.5,61.0,30.02,East,82,1.0,7.0,65,0.00,,,0.00,Wunderground v.1.15,2013-07-20 02:23:00,
2013-07-19 19:28:00,73.1,60.6,30.03,NE,35,1.0,7.0,65,0.00,,,0.00,Wunderground v.1.15,2013-07-20 02:28:00,
2013-07-19 19:33:00,72.7,60.3,30.03,NE,36,1.0,7.0,65,0.00,,,0.00,Wunderground v.1.15,2013-07-20 02:33:00,
2013-07-19 19:39:00,72.2,60.6,30.03,East,98,1.0,7.0,67,0.00,,,0.00,Wunderground v.1.15,2013-07-20 02:39:00,
2013-07-19 19:44:00,71.9,61.2,30.02,ENE,60,1.0,7.0,69,0.00,,,0.00,Wunderground v.1.15,2013-07-20 02:44:00,
2013-07-19 19:49:00,71.7,60.6,30.02,North,5,1.0,7.0,68,0.00,,,0.00,Wunderground v.1.15,2013-07-20 02:49:00,
2013-07-19 19:54:00,71.7,60.2,30.02,North,11,1.0,7.0,67,0.00,,,0.00,Wunderground v.1.15,2013-07-20 02:54:00,
2013-07-19 19:59:00,71.6,60.1,30.02,NNW,338,1.0,7.0,67,0.00,,,0.00,Wunderground v.1.15,2013-07-20 02:59:00,
2013-07-19 20:05:00,71.6,60.1,30.02,WNW,295,1.0,7.0,67,0.00,,,0.00,Wunderground v.1.15,2013-07-20 03:05:00,
2013-07-19 20:10:00,71.4,59.9,30.02,North,6,1.0,7.0,67,0.00,,,0.00,Wunderground v.1.15,2013-07-20 03:10:00,
2013-07-19 20:15:00,71.2,60.1,30.02,NNE,18,1.0,7.0,68,0.00,,,0.00,Wunderground v.1.15,2013-07-20 03:15:00,
2013-07-19 20:20:00,70.9,59.8,30.03,NNE,20,2.0,7.0,68,0.00,,,0.00,Wunderground v.1.15,2013-07-20 03:20:00,
2013-07-19 20:25:00,70.7,60.0,30.03,NNE,18,1.0,7.0,69,0.00,,,0.00,Wunderground v.1.15,2013-07-20 03:25:00,
2013-07-19 20:30:00,70.4,59.7,30.03,NNW,330,1.0,7.0,69,0.00,,,0.00,Wunderground v.1.15,2013-07-20 03:30:00,
2013-07-19 20:35:00,70.3,59.6,30.03,East,82,1.0,7.0,69,0.00,,,0.00,Wunderground v.1.15,2013-07-20 03:35:00,
2013-07-19 20:40:00,70.0,59.4,30.03,NNE,30,1.0,7.0,69,0.00,,,0.00,Wunderground v.1.15,2013-07-20 03:40:00,
2013-07-19 20:45:00,69.7,59.9,30.03,WNW,299,1.0,7.0,71,0.00,,,0.00,Wunderground v.1.15,2013-07-20 03:45:00,
2013-07-19 20:50:00,69.3,59.5,30.03,West,264,1.0,1.0,71,0.00,,,0.00,Wunderground v.1.15,2013-07-20 03:50:00,
2013-07-19 20:55:00,68.9,59.1,30.03,West,265,0.0,7.0,71,0.00,,,0.00,Wunderground v.1.15,2013-07-20 03:55:00,
2013-07-19 21:01:00,68.5,59.1,30.03,West,275,0.0,7.0,72,0.00,,,0.00,Wunderground v.1.15,2013-07-20 04:01:00,
2013-07-19 21:02:00,68.4,59.0,30.03,West,275,0.0,7.0,72,0.00,,,0.00,Wunderground v.1.15,2013-07-20 04:02:00,
2013-07-19 21:04:00,68.2,59.2,30.03,West,275,0.0,7.0,73,0.00,,,0.00,Wunderground v.1.15,2013-07-20 04:04:00,
2013-07-19 21:05:00,68.2,59.2,30.03,West,275,0.0,7.0,73,0.00,,,0.00,Wunderground v.1.15,2013-07-20 04:05:00,
2013-07-19 21:10:00,67.9,58.9,30.03,North,7,0.0,7.0,73,0.00,,,0.00,Wunderground v.1.15,2013-07-20 04:10:00,
2013-07-19 21:15:00,67.6,59.0,30.03,WNW,295,1.0,7.0,74,0.00,,,0.00,Wunderground v.1.15,2013-07-20 04:15:00,
2013-07-19 21:18:00,67.4,58.8,30.03,WNW,295,1.0,7.0,74,0.00,,,0.00,Wunderground v.1.15,2013-07-20 04:18:00,
2013-07-19 21:23:00,67.0,58.8,30.04,WNW,295,1.0,7.0,75,0.00,,,0.00,Wunderground v.1.15,2013-07-20 04:23:00,
2013-07-19 21:28:00,66.7,58.5,30.04,NNE,17,1.0,7.0,75,0.00,,,0.00,Wunderground v.1.15,2013-07-20 04:28:00,
2013-07-19 21:33:00,66.6,58.4,30.04,NNW,339,0.0,7.0,75,0.00,,,0.00,Wunderground v.1.15,2013-07-20 04:33:00,
2013-07-19 21:38:00,66.5,58.3,30.04,NNE,13,1.0,7.0,75,0.00,,,0.00,Wunderground v.1.15,2013-07-20 04:38:00,
2013-07-19 21:44:00,66.3,58.5,30.04,NNW,340,1.0,7.0,76,0.00,,,0.00,Wunderground v.1.15,2013-07-20 04:44:00,
2013-07-19 21:49:00,66.0,58.2,30.04,WNW,283,1.0,7.0,76,0.00,,,0.00,Wunderground v.1.15,2013-07-20 04:49:00,
2013-07-19 21:54:00,65.7,58.3,30.04,WNW,289,0.0,7.0,77,0.00,,,0.00,Wunderground v.1.15,2013-07-20 04:54:00,
2013-07-19 21:59:00,65.4,58.0,30.04,NE,34,0.0,7.0,77,0.00,,,0.00,Wunderground v.1.15,2013-07-20 04:59:00,
2013-07-19 22:04:00,65.2,57.8,30.04,North,6,0.0,7.0,77,0.00,,,0.00,Wunderground v.1.15,2013-07-20 05:04:00,
2013-07-19 22:10:00,64.9,57.9,30.04,WNW,296,1.0,1.0,78,0.00,,,0.00,Wunderground v.1.15,2013-07-20 05:10:00,
2013-07-19 22:15:00,64.6,57.9,30.05,WNW,296,1.0,7.0,79,0.00,,,0.00,Wunderground v.1.15,2013-07-20 05:15:00,
2013-07-19 22:20:00,64.4,57.7,30.05,WNW,287,0.0,7.0,79,0.00,,,0.00,Wunderground v.1.15,2013-07-20 05:20:00,
2013-07-19 22:25:00,64.3,57.6,30.04,North,353,1.0,7.0,79,0.00,,,0.00,Wunderground v.1.15,2013-07-20 05:25:00,
2013-07-19 22:30:00,64.2,57.5,30.05,WNW,294,1.0,1.0,79,0.00,,,0.00,Wunderground v.1.15,2013-07-20 05:30:00,
2013-07-19 22:36:00,63.9,57.6,30.05,WNW,284,1.0,7.0,80,0.00,,,0.00,Wunderground v.1.15,2013-07-20 05:36:00,
2013-07-19 22:41:00,63.7,57.4,30.05,WNW,284,0.0,7.0,80,0.00,,,0.00,Wunderground v.1.15,2013-07-20 05:41:00,
2013-07-19 22:46:00,63.4,57.5,30.05,WNW,284,0.0,7.0,81,0.00,,,0.00,Wunderground v.1.15,2013-07-20 05:46:00,
2013-07-19 22:51:00,63.2,57.3,30.05,North,349,0.0,7.0,81,0.00,,,0.00,Wunderground v.1.15,2013-07-20 05:51:00,
2013-07-19 22:56:00,63.0,57.4,30.05,NNE,13,0.0,7.0,82,0.00,,,0.00,Wunderground v.1.15,2013-07-20 05:56:00,
2013-07-19 23:02:00,62.8,57.2,30.05,WNW,300,0.0,7.0,82,0.00,,,0.00,Wunderground v.1.15,2013-07-20 06:02:00,
2013-07-19 23:07:00,62.6,57.0,30.05,WNW,288,0.0,7.0,82,0.00,,,0.00,Wunderground v.1.15,2013-07-20 06:07:00,
2013-07-19 23:12:00,62.3,56.7,30.05,NNW,331,1.0,7.0,82,0.00,,,0.00,Wunderground v.1.15,2013-07-20 06:12:00,
2013-07-19 23:17:00,62.1,56.9,30.05,NNW,330,0.0,7.0,83,0.00,,,0.00,Wunderground v.1.15,2013-07-20 06:17:00,
2013-07-19 23:22:00,61.9,56.7,30.05,NNW,327,0.0,7.0,83,0.00,,,0.00,Wunderground v.1.15,2013-07-20 06:22:00,
2013-07-19 23:28:00,61.7,56.5,30.05,NNW,327,0.0,7.0,83,0.00,,,0.00,Wunderground v.1.15,2013-07-20 06:28:00,
2013-07-19 23:33:00,61.4,56.5,30.05,NNW,333,0.0,7.0,84,0.00,,,0.00,Wunderground v.1.15,2013-07-20 06:33:00,
2013-07-19 23:38:00,61.2,56.3,30.05,NW,311,0.0,7.0,84,0.00,,,0.00,Wunderground v.1.15,2013-07-20 06:38:00,
2013-07-19 23:43:00,60.9,56.4,30.05,NW,311,0.0,7.0,85,0.00,,,0.00,Wunderground v.1.15,2013-07-20 06:43:00,
2013-07-19 23:48:00,60.7,56.5,30.05,NW,311,0.0,7.0,86,0.00,,,0.00,Wunderground v.1.15,2013-07-20 06:48:00,
2013-07-19 23:54:00,60.5,56.3,30.05,NW,311,0.0,7.0,86,0.00,,,0.00,Wunderground v.1.15,2013-07-20 06:54:00,
2013-07-19 23:59:00,60.3,56.4,30.05,NW,311,0.0,7.0,87,0.00,,,0.00,Wunderground v.1.15,2013-07-20 06:59:00,